Time;durP1;ratioP1;P1;durP2;ratioP2;P2;SDS_P1;SDS_P2;PMS_P1;PMS_P2;Temp;Humidity;BMP_temperature;BMP_pressure;BME280_temperature;BME280_humidity;BME280_pressure;Samples;Min_cycle;Max_cycle;Signal;HPM_P1;HPM_P2
2022/05/05 00:01:13;;;;;;;;;;;;;;;7.48;82.31;100968.20;1753358;82;20545;-58
2022/05/05 00:04:22;;;;;;;;;;;;;;;7.43;82.30;100975.44;1753347;80;20201;-57
2022/05/05 00:07:25;;;;;;;;;;;;;;;7.39;82.30;100973.98;1753593;82;20593;-59
2022/05/05 00:17:18;;;;;;;;;;;;;;;7.27;82.30;100981.06;1761075;81;20247;-59
2022/05/05 00:20:24;;;;;;;;;;;;;;;7.20;82.30;100980.75;1761346;81;20220;-60
2022/05/05 00:23:31;;;;;;;;;;;;;;;7.16;82.27;100980.69;1761675;80;20189;-58
2022/05/05 00:26:35;;;;;;;;;;;;;;;7.10;82.20;100977.14;1761128;81;20441;-59
2022/05/05 00:29:39;;;;;;;;;;;;;;;7.07;82.18;100991.55;1761293;80;20456;-60
2022/05/05 00:32:44;;;;;;;;;;;;;;;7.00;82.12;100991.23;1761091;80;20228;-58
2022/05/05 00:35:51;;;;;;;;;;;;;;;6.95;82.14;100994.88;1761308;81;20216;-58
2022/05/05 00:38:55;;;;;;;;;;;;;;;6.91;82.14;101005.66;1761100;80;20204;-57
2022/05/05 00:42:00;;;;;;;;;;;;;;;6.86;82.14;101002.52;1761555;81;20232;-59
2022/05/05 00:45:07;;;;;;;;;;;;;;;6.84;82.14;101005.86;1761182;81;20244;-58
2022/05/05 00:48:14;;;;;;;;;;;;;;;6.79;82.16;101006.76;1761306;80;20267;-60
2022/05/05 00:51:24;;;;;;;;;;;;;;;6.78;82.22;101006.90;1761208;81;20517;-58
2022/05/05 00:54:29;;;;;;;;;;;;;;;6.74;82.20;101008.19;1761266;80;20196;-57
2022/05/05 00:57:36;;;;;;;;;;;;;;;6.70;82.14;101014.88;1761040;80;20180;-58
2022/05/05 01:00:41;;;;;;;;;;;;;;;6.66;82.13;101017.00;1761385;81;20224;-59
2022/05/05 01:03:46;;;;;;;;;;;;;;;6.61;82.10;101023.86;1761257;80;20481;-58
2022/05/05 01:06:51;;;;;;;;;;;;;;;6.55;82.09;101022.53;1761119;81;20215;-59
2022/05/05 01:09:56;;;;;;;;;;;;;;;6.50;82.08;101038.38;1761297;80;20197;-58
2022/05/05 01:13:04;;;;;;;;;;;;;;;6.47;82.10;101033.22;1767574;80;20239;-57
2022/05/05 01:16:10;;;;;;;;;;;;;;;6.42;82.08;101034.14;1756001;80;20307;-59
2022/05/05 01:19:16;;;;;;;;;;;;;;;6.38;82.05;101031.30;1754554;80;20314;-59
2022/05/05 01:22:25;;;;;;;;;;;;;;;6.33;82.06;101047.15;1711551;84;20197;-57
2022/05/05 01:28:53;;;;;;;;;;;;;;;6.27;82.08;101044.97;1778450;80;20191;-57
2022/05/05 01:31:58;;;;;;;;;;;;;;;6.24;82.06;101049.31;1778469;81;20175;-58
2022/05/05 01:35:02;;;;;;;;;;;;;;;6.20;82.07;101047.84;1778696;81;20571;-57
2022/05/05 01:38:07;;;;;;;;;;;;;;;6.18;82.08;101053.92;1778698;80;20199;-59
2022/05/05 01:41:12;;;;;;;;;;;;;;;6.15;82.12;101059.63;1778700;81;20542;-59
2022/05/05 01:44:18;;;;;;;;;;;;;;;6.12;82.14;101057.14;1777432;80;20223;-57
2022/05/05 01:47:23;;;;;;;;;;;;;;;6.09;82.12;101069.16;1776941;81;20263;-57
2022/05/05 01:50:31;;;;;;;;;;;;;;;6.07;82.12;101067.58;1778493;81;20523;-57
2022/05/05 01:53:37;;;;;;;;;;;;;;;6.05;82.13;101080.42;1778685;80;20187;-57
2022/05/05 01:56:43;;;;;;;;;;;;;;;6.04;82.17;101082.78;1755891;80;20235;-59
2022/05/05 01:59:48;;;;;;;;;;;;;;;6.03;82.19;101087.83;1712675;83;20220;-57
2022/05/05 02:02:57;;;;;;;;;;;;;;;6.02;82.16;101092.91;1776982;80;20180;-60
2022/05/05 02:06:03;;;;;;;;;;;;;;;6.00;82.14;101098.48;1778739;81;20207;-58
2022/05/05 02:09:08;;;;;;;;;;;;;;;5.99;82.14;101104.05;1778632;80;20535;-58
2022/05/05 02:12:15;;;;;;;;;;;;;;;5.96;82.12;101104.30;1778056;81;20191;-57
2022/05/05 02:15:21;;;;;;;;;;;;;;;5.93;82.08;101103.20;1776583;80;20203;-58
2022/05/05 02:18:25;;;;;;;;;;;;;;;5.92;82.10;101117.77;1778698;80;20528;-58
2022/05/05 02:21:29;;;;;;;;;;;;;;;5.90;82.11;101115.66;1778683;80;20519;-58
2022/05/05 02:24:34;;;;;;;;;;;;;;;5.89;82.10;101122.09;1778592;80;20523;-57
2022/05/05 02:27:53;;;;;;;;;;;;;;;5.88;82.12;101130.73;1778655;80;20543;-58
2022/05/05 02:31:03;;;;;;;;;;;;;;;5.87;82.14;101136.30;1778721;81;20187;-59
2022/05/05 02:34:11;;;;;;;;;;;;;;;5.87;82.11;101134.45;1778750;80;20192;-58
2022/05/05 02:40:41;;;;;;;;;;;;;;;5.85;82.10;101139.66;1778670;81;20535;-58
2022/05/05 02:43:47;;;;;;;;;;;;;;;5.85;82.10;101152.73;1756219;80;20227;-59
2022/05/05 02:46:52;;;;;;;;;;;;;;;5.84;82.10;101155.09;1778593;81;20247;-58
2022/05/05 02:49:58;;;;;;;;;;;;;;;5.84;82.05;101165.09;1778777;81;20184;-58
2022/05/05 02:54:47;;;;;;;;;;;;;;;5.84;82.05;101174.59;1778576;80;20172;-59
2022/05/05 02:56:11;;;;;;;;;;;;;;;5.83;82.06;101175.59;1778541;81;20188;-59
2022/05/05 02:59:19;;;;;;;;;;;;;;;5.82;82.03;101175.20;1778740;80;20200;-58
2022/05/05 03:02:25;;;;;;;;;;;;;;;5.83;82.07;101176.95;1778763;81;20195;-58
2022/05/05 03:05:30;;;;;;;;;;;;;;;5.86;82.09;101186.20;1778771;81;20212;-58
2022/05/05 03:08:36;;;;;;;;;;;;;;;5.88;82.12;101193.23;1778756;80;20208;-57
2022/05/05 03:11:42;;;;;;;;;;;;;;;5.91;82.11;101208.44;1778709;81;20227;-56
2022/05/05 03:14:47;;;;;;;;;;;;;;;5.94;82.13;101210.90;1777019;80;20262;-59
2022/05/05 03:17:54;;;;;;;;;;;;;;;5.97;82.11;101215.59;1778357;81;20235;-58
2022/05/05 03:20:59;;;;;;;;;;;;;;;6.02;82.18;101223.36;1778358;81;20247;-58
2022/05/05 03:24:04;;;;;;;;;;;;;;;6.07;82.20;101231.48;1778324;81;20207;-57
2022/05/05 03:27:10;;;;;;;;;;;;;;;6.14;82.24;101236.44;1778359;81;20555;-55
2022/05/05 03:30:17;;;;;;;;;;;;;;;6.21;82.28;101235.80;1778200;81;20283;-54
2022/05/05 03:33:21;;;;;;;;;;;;;;;6.30;82.29;101240.46;1778622;81;20192;-56
2022/05/05 03:36:25;;;;;;;;;;;;;;;6.38;82.29;101239.81;1777825;81;20203;-55
2022/05/05 03:39:29;;;;;;;;;;;;;;;6.46;82.24;101257.72;1749618;80;20205;-54
2022/05/05 03:42:35;;;;;;;;;;;;;;;6.53;82.25;101258.45;1744672;82;20225;-54
2022/05/05 03:45:39;;;;;;;;;;;;;;;6.60;82.23;101256.05;1746732;82;20522;-54
2022/05/05 03:48:47;;;;;;;;;;;;;;;6.68;82.24;101265.31;1746997;82;20209;-56
2022/05/05 03:51:52;;;;;;;;;;;;;;;6.75;82.23;101271.09;1747199;82;20218;-55
2022/05/05 03:54:56;;;;;;;;;;;;;;;6.82;82.20;101279.97;1747577;82;20534;-54
2022/05/05 03:58:02;;;;;;;;;;;;;;;6.91;82.22;101282.41;1747889;82;20305;-55
2022/05/05 04:01:08;;;;;;;;;;;;;;;6.98;82.17;101285.84;1747584;82;20325;-53
2022/05/05 04:04:15;;;;;;;;;;;;;;;7.08;82.17;101287.27;1747495;82;20218;-56
2022/05/05 04:07:20;;;;;;;;;;;;;;;7.19;82.21;101295.38;1745801;82;20182;-54
2022/05/05 04:10:25;;;;;;;;;;;;;;;7.29;82.18;101295.81;1747167;82;20201;-55
2022/05/05 04:13:32;;;;;;;;;;;;;;;7.41;82.21;101292.04;1747738;82;20193;-55
2022/05/05 04:16:39;;;;;;;;;;;;;;;7.54;82.18;101302.73;1735562;81;20578;-55
2022/05/05 04:19:45;;;;;;;;;;;;;;;7.64;82.13;101301.77;1729534;83;20234;-53
2022/05/05 04:22:51;;;;;;;;;;;;;;;7.77;82.10;101303.44;1729491;83;20254;-53
2022/05/05 04:25:57;;;;;;;;;;;;;;;7.90;82.10;101299.96;1729503;83;20222;-54
2022/05/05 04:29:02;;;;;;;;;;;;;;;8.00;82.02;101304.48;1728937;83;20202;-58
2022/05/05 04:32:09;;;;;;;;;;;;;;;8.13;82.03;101305.61;1729425;83;20226;-55
2022/05/05 04:35:17;;;;;;;;;;;;;;;8.23;81.88;101315.57;1729396;83;20214;-55
2022/05/05 04:38:21;;;;;;;;;;;;;;;8.33;81.82;101318.33;1728967;83;20266;-55
2022/05/05 04:41:27;;;;;;;;;;;;;;;8.40;81.73;101326.34;1728986;83;20563;-55
2022/05/05 04:44:31;;;;;;;;;;;;;;;8.44;81.59;101322.31;1731143;82;20240;-55
2022/05/05 04:47:36;;;;;;;;;;;;;;;8.47;81.43;101331.58;1708501;84;20215;-55
2022/05/05 04:50:41;;;;;;;;;;;;;;;8.50;81.36;101330.81;1723750;82;20315;-56
2022/05/05 04:53:45;;;;;;;;;;;;;;;8.60;81.33;101328.10;1737420;82;20222;-57
2022/05/05 04:56:49;;;;;;;;;;;;;;;8.71;81.32;101334.81;1708202;82;20565;-56
2022/05/05 04:59:55;;;;;;;;;;;;;;;8.81;81.24;101335.20;1735360;82;20200;-48
2022/05/05 05:03:03;;;;;;;;;;;;;;;8.92;81.17;101346.00;1733237;82;20654;-49
2022/05/05 05:06:08;;;;;;;;;;;;;;;9.02;81.10;101340.55;1736941;82;20295;-49
2022/05/05 05:09:22;;;;;;;;;;;;;;;9.12;81.03;101345.48;1732754;82;20240;-51
2022/05/05 05:12:28;;;;;;;;;;;;;;;9.22;80.92;101357.78;1735991;82;20495;-51
2022/05/05 05:15:36;;;;;;;;;;;;;;;9.25;80.73;101355.64;1706962;82;20214;-52
2022/05/05 05:18:42;;;;;;;;;;;;;;;9.28;80.59;101362.17;1710256;82;20203;-50
2022/05/05 05:21:48;;;;;;;;;;;;;;;9.32;80.55;101364.12;1703970;83;20625;-51
2022/05/05 05:25:01;;;;;;;;;;;;;;;9.40;80.50;101362.41;1716905;83;20213;-48
2022/05/05 05:28:17;;;;;;;;;;;;;;;9.46;80.45;101350.02;1698521;83;20245;-49
2022/05/05 05:31:22;;;;;;;;;;;;;;;9.55;80.39;101362.31;1698562;83;20221;-49
2022/05/05 05:34:27;;;;;;;;;;;;;;;9.61;80.25;101360.88;1699647;83;20214;-49
2022/05/05 05:37:31;;;;;;;;;;;;;;;9.67;80.14;101371.23;1700218;83;20269;-47
2022/05/05 05:40:37;;;;;;;;;;;;;;;9.73;80.09;101381.08;1700161;83;20233;-49
2022/05/05 05:43:43;;;;;;;;;;;;;;;9.82;80.04;101387.52;1728826;82;20267;-48
2022/05/05 05:46:50;;;;;;;;;;;;;;;9.85;79.92;101381.76;1722068;82;20618;-49
2022/05/05 05:49:55;;;;;;;;;;;;;;;9.89;79.89;101386.81;1727943;83;20246;-49
2022/05/05 05:53:00;;;;;;;;;;;;;;;9.95;79.83;101391.69;1714913;82;20218;-51
2022/05/05 05:56:10;;;;;;;;;;;;;;;10.03;79.77;101395.92;1708461;84;20390;-48
2022/05/05 05:59:16;;;;;;;;;;;;;;;10.09;79.59;101405.42;1712922;81;20256;-49
2022/05/05 06:05:45;;;;;;;;;;;;;;;10.28;79.70;101397.16;1726125;83;20203;-50
2022/05/05 06:08:51;;;;;;;;;;;;;;;10.41;79.66;101399.94;1728890;82;20208;-48
2022/05/05 06:11:57;;;;;;;;;;;;;;;10.49;79.53;101396.44;1731657;82;20222;-48
2022/05/05 06:15:04;;;;;;;;;;;;;;;10.52;79.33;101414.80;1721085;83;20214;-51
2022/05/05 06:18:12;;;;;;;;;;;;;;;10.58;79.31;101410.09;1735267;81;20255;-48
2022/05/05 06:21:20;;;;;;;;;;;;;;;10.65;79.18;101408.11;1738136;82;20333;-52
2022/05/05 06:24:32;;;;;;;;;;;;;;;10.66;78.96;101407.95;1750396;82;20216;-49
2022/05/05 06:27:41;;;;;;;;;;;;;;;10.71;78.96;101411.11;1750208;82;20229;-49
2022/05/05 06:30:48;;;;;;;;;;;;;;;10.80;78.87;101414.30;1727877;82;20240;-52
2022/05/05 06:33:57;;;;;;;;;;;;;;;10.85;78.69;101410.59;1723564;81;20254;-53
2022/05/05 06:37:03;;;;;;;;;;;;;;;10.89;78.61;101422.11;1732073;82;20208;-49
2022/05/05 06:40:10;;;;;;;;;;;;;;;10.92;78.50;101434.14;1743676;82;20254;-50
2022/05/05 06:43:15;;;;;;;;;;;;;;;10.98;78.34;101429.41;1717265;82;20212;-49
2022/05/05 06:46:21;;;;;;;;;;;;;;;11.00;78.29;101427.39;1669094;86;20581;-49
2022/05/05 06:49:28;;;;;;;;;;;;;;;11.10;78.38;101429.58;1698591;84;20228;-47
2022/05/05 06:52:36;;;;;;;;;;;;;;;11.19;78.27;101419.92;1677135;85;20209;-48
2022/05/05 06:55:42;;;;;;;;;;;;;;;11.23;78.08;101430.03;1680848;85;20241;-48
2022/05/05 06:58:54;;;;;;;;;;;;;;;11.24;77.94;101430.41;1686735;84;20244;-50
2022/05/05 07:02:03;;;;;;;;;;;;;;;11.27;77.89;101439.70;1656718;85;20563;-47
2022/05/05 07:05:30;;;;;;;;;;;;;;;11.34;77.88;101435.30;1670004;86;20215;-48
2022/05/05 07:10:52;;;;;;;;;;;;;;;11.43;77.79;101435.77;1687204;84;20221;-50
2022/05/05 07:11:39;;;;;;;;;;;;;;;11.48;77.60;101437.53;1680242;84;20257;-48
2022/05/05 07:14:44;;;;;;;;;;;;;;;11.52;77.49;101445.78;1690730;85;20209;-48
2022/05/05 07:17:52;;;;;;;;;;;;;;;11.62;77.52;101441.09;1673704;85;20228;-49
2022/05/05 07:20:59;;;;;;;;;;;;;;;11.68;77.34;101444.61;1661986;85;20247;-49
2022/05/05 07:24:06;;;;;;;;;;;;;;;11.72;77.26;101443.26;1669269;84;20222;-49
2022/05/05 07:27:13;;;;;;;;;;;;;;;11.78;77.17;101464.60;1672660;85;20320;-47
2022/05/05 07:30:19;;;;;;;;;;;;;;;11.79;76.87;101453.97;1669710;83;20223;-49
2022/05/05 07:33:30;;;;;;;;;;;;;;;11.77;76.74;101454.63;1670305;85;20219;-56
2022/05/05 07:36:36;;;;;;;;;;;;;;;11.78;76.70;101453.63;1677695;85;20220;-55
2022/05/05 07:39:42;;;;;;;;;;;;;;;11.85;76.74;101450.59;1667526;86;20241;-56
2022/05/05 07:42:51;;;;;;;;;;;;;;;11.94;76.69;101458.73;1647588;84;20264;-56
2022/05/05 07:45:58;;;;;;;;;;;;;;;12.01;76.56;101468.07;1638763;86;20213;-56
2022/05/05 07:49:02;;;;;;;;;;;;;;;12.10;76.58;101458.00;1635793;86;20617;-57
2022/05/05 07:52:06;;;;;;;;;;;;;;;12.20;76.43;101448.30;1662913;85;20224;-55
2022/05/05 07:55:11;;;;;;;;;;;;;;;12.26;76.41;101455.91;1672531;85;20219;-55
2022/05/05 07:58:16;;;;;;;;;;;;;;;12.36;76.29;101457.52;1669673;85;20579;-56
2022/05/05 08:01:21;;;;;;;;;;;;;;;12.37;75.93;101461.98;1674614;85;20255;-59
2022/05/05 08:04:27;;;;;;;;;;;;;;;12.32;75.76;101451.98;1676030;84;20276;-57
2022/05/05 08:07:31;;;;;;;;;;;;;;;12.21;75.45;101450.87;1669567;86;20233;-58
2022/05/05 08:10:35;;;;;;;;;;;;;;;12.22;75.54;101459.98;1669774;86;20221;-57
2022/05/05 08:13:42;;;;;;;;;;;;;;;12.29;75.54;101450.94;1668419;86;20606;-58
2022/05/05 08:16:47;;;;;;;;;;;;;;;12.39;75.59;101448.09;1658600;85;20221;-57
2022/05/05 08:19:52;;;;;;;;;;;;;;;12.47;75.45;101461.38;1691091;79;20524;-57
2022/05/05 08:22:59;;;;;;;;;;;;;;;12.54;75.42;101458.84;1670315;86;20619;-57
2022/05/05 08:29:26;;;;;;;;;;;;;;;12.74;75.26;101469.44;1670400;86;20199;-59
2022/05/05 08:32:33;;;;;;;;;;;;;;;12.80;74.96;101460.53;1642914;87;20311;-57
2022/05/05 08:35:41;;;;;;;;;;;;;;;12.83;75.31;101472.57;1668858;86;20266;-56
2022/05/05 08:38:46;;;;;;;;;;;;;;;12.88;75.61;101474.82;1656250;86;20232;-56
2022/05/05 08:41:51;;;;;;;;;;;;;;;12.89;74.93;101469.16;1692893;84;20265;-56
2022/05/05 08:44:58;;;;;;;;;;;;;;;12.91;74.54;101467.12;1689294;85;20213;-57
2022/05/05 08:48:03;;;;;;;;;;;;;;;12.97;74.47;101459.58;1689056;84;20579;-62
2022/05/05 08:51:09;;;;;;;;;;;;;;;13.04;74.39;101459.31;1637320;87;20576;-63
2022/05/05 08:54:16;;;;;;;;;;;;;;;13.06;74.19;101450.39;1684580;85;20217;-61
2022/05/05 08:57:22;;;;;;;;;;;;;;;13.10;74.19;101456.40;1673595;85;20272;-64
2022/05/05 09:00:30;;;;;;;;;;;;;;;13.15;74.23;101456.77;1669409;85;20527;-60
2022/05/05 09:03:38;;;;;;;;;;;;;;;13.20;74.84;101451.13;1659338;85;20254;-60
2022/05/05 09:06:51;;;;;;;;;;;;;;;13.23;74.46;101453.55;1642861;85;20215;-63
2022/05/05 09:09:56;;;;;;;;;;;;;;;13.23;73.94;101463.17;1641244;87;20254;-62
2022/05/05 09:13:08;;;;;;;;;;;;;;;13.25;73.86;101462.50;1643554;87;20688;-61
2022/05/05 09:16:12;;;;;;;;;;;;;;;13.22;73.64;101454.55;1648720;87;20581;-61
2022/05/05 09:19:21;;;;;;;;;;;;;;;13.28;73.63;101453.91;1646648;87;20336;-62
2022/05/05 09:22:30;;;;;;;;;;;;;;;13.37;75.12;101462.52;1662318;84;20226;-63
2022/05/05 09:25:51;;;;;;;;;;;;;;;13.46;74.53;101454.63;1649851;87;20208;-62
2022/05/05 09:28:57;;;;;;;;;;;;;;;13.53;73.96;101458.95;1650705;86;20559;-61
2022/05/05 09:32:03;;;;;;;;;;;;;;;13.53;73.50;101458.44;1673110;86;20219;-64
2022/05/05 09:35:12;;;;;;;;;;;;;;;13.53;73.31;101453.44;1674007;86;20600;-61
2022/05/05 09:38:20;;;;;;;;;;;;;;;13.61;73.38;101457.59;1693378;84;20236;-61
2022/05/05 09:41:36;;;;;;;;;;;;;;;13.79;73.59;101451.94;1665025;86;20271;-61
2022/05/05 09:45:08;;;;;;;;;;;;;;;13.98;73.47;101463.48;1665186;86;20575;-60
2022/05/05 09:58:46;;;;;;;;;;;;;;;14.44;74.51;101461.95;1770380;81;20210;-69
2022/05/05 10:01:56;;;;;;;;;;;;;;;14.41;73.96;101454.87;1766176;81;20217;-63
2022/05/05 10:05:03;;;;;;;;;;;;;;;14.54;73.83;101457.95;1770210;81;20202;-63
2022/05/05 10:08:08;;;;;;;;;;;;;;;14.63;74.73;101454.67;1787590;79;20201;-63
2022/05/05 10:11:15;;;;;;;;;;;;;;;14.70;74.42;101446.02;1757710;81;20253;-63
2022/05/05 10:14:20;;;;;;;;;;;;;;;14.86;74.44;101445.98;1771536;81;20566;-65
2022/05/05 10:17:26;;;;;;;;;;;;;;;14.95;74.56;101451.83;1772541;80;20205;-65
2022/05/05 10:20:35;;;;;;;;;;;;;;;15.12;74.92;101454.85;1764779;80;20570;-63
2022/05/05 10:24:15;;;;;;;;;;;;;;;15.27;74.78;101447.52;1758277;81;20202;-67
2022/05/05 10:27:23;;;;;;;;;;;;;;;15.29;74.71;101454.23;1760464;81;20220;-64
2022/05/05 10:30:40;;;;;;;;;;;;;;;15.36;74.49;101446.46;1771037;81;20205;-61
2022/05/05 10:34:07;;;;;;;;;;;;;;;15.31;74.03;101454.41;1772316;81;20210;-63
2022/05/05 10:37:15;;;;;;;;;;;;;;;15.40;73.93;101455.25;1773806;80;20229;-63
2022/05/05 10:40:23;;;;;;;;;;;;;;;15.60;74.75;101460.67;1774690;80;20284;-65
2022/05/05 10:43:37;;;;;;;;;;;;;;;15.65;74.52;101456.30;1769637;81;20242;-65
2022/05/05 10:47:05;;;;;;;;;;;;;;;15.74;74.12;101457.98;1770800;81;20205;-65
2022/05/05 10:50:12;;;;;;;;;;;;;;;15.99;74.21;101446.22;1744913;81;20259;-63
2022/05/05 10:53:40;;;;;;;;;;;;;;;16.10;74.35;101452.17;1772162;80;20586;-60
2022/05/05 10:56:48;;;;;;;;;;;;;;;16.00;74.38;101447.93;1770207;81;20282;-64
2022/05/05 11:00:14;;;;;;;;;;;;;;;16.21;74.57;101448.10;1752159;80;20313;-63
2022/05/05 11:03:22;;;;;;;;;;;;;;;16.39;74.35;101461.91;1769734;80;20229;-61
2022/05/05 11:06:32;;;;;;;;;;;;;;;16.36;73.94;101449.84;1769746;80;20209;-64
2022/05/05 11:09:36;;;;;;;;;;;;;;;16.41;73.96;101449.31;1770827;81;20198;-63
2022/05/05 11:12:43;;;;;;;;;;;;;;;16.45;74.15;101447.91;1761588;81;20215;-62
2022/05/05 11:23:04;;;;;;;;;;;;;;;16.91;74.87;101456.39;1764391;81;20561;-63
2022/05/05 11:26:09;;;;;;;;;;;;;;;16.95;74.77;101449.41;1767968;80;20297;-64
2022/05/05 11:29:24;;;;;;;;;;;;;;;16.97;74.65;101457.52;1772539;81;20608;-61
2022/05/05 11:32:43;;;;;;;;;;;;;;;16.94;74.67;101447.71;1744352;80;20541;-65
2022/05/05 11:36:02;;;;;;;;;;;;;;;17.05;74.85;101434.78;1764275;81;20562;-62
2022/05/05 11:39:10;;;;;;;;;;;;;;;17.29;75.17;101446.05;1773338;81;20248;-63
2022/05/05 11:42:18;;;;;;;;;;;;;;;17.53;75.00;101439.70;1762095;80;20209;-61
2022/05/05 11:45:27;;;;;;;;;;;;;;;17.58;74.76;101440.48;1707711;84;20597;-63
2022/05/05 11:48:32;;;;;;;;;;;;;;;17.57;74.43;101435.98;1774566;80;20249;-62
2022/05/05 11:51:39;;;;;;;;;;;;;;;17.32;74.27;101448.43;1773579;80;20284;-62
2022/05/05 11:54:47;;;;;;;;;;;;;;;17.34;74.67;101433.87;1772103;80;20209;-63
2022/05/05 11:58:03;;;;;;;;;;;;;;;17.50;74.96;101440.09;1751696;80;20202;-65
2022/05/05 12:04:40;;;;;;;;;;;;;;;17.61;74.71;101438.71;1742418;80;20216;-65
2022/05/05 12:07:46;;;;;;;;;;;;;;;17.60;74.48;101435.07;1761430;80;20209;-63
2022/05/05 12:10:54;;;;;;;;;;;;;;;17.87;74.81;101437.59;1768369;81;20226;-65
2022/05/05 12:13:59;;;;;;;;;;;;;;;17.86;74.07;101432.60;1781871;80;20555;-64
2022/05/05 12:17:07;;;;;;;;;;;;;;;17.66;73.72;101413.52;1741226;82;20588;-63
2022/05/05 12:20:14;;;;;;;;;;;;;;;17.67;73.76;101426.84;1743628;80;20317;-63
2022/05/05 12:23:18;;;;;;;;;;;;;;;17.75;73.89;101419.80;1768250;80;20574;-63
2022/05/05 12:26:27;;;;;;;;;;;;;;;17.61;73.60;101426.25;1740764;82;20235;-61
2022/05/05 12:29:33;;;;;;;;;;;;;;;17.65;74.45;101424.27;1741541;82;20212;-63
2022/05/05 12:32:38;;;;;;;;;;;;;;;17.77;74.61;101418.53;1754452;80;20205;-58
2022/05/05 12:35:50;;;;;;;;;;;;;;;17.72;74.32;101419.67;1771006;81;20507;-62
2022/05/05 12:38:56;;;;;;;;;;;;;;;17.76;74.16;101413.19;1771407;80;20237;-60
2022/05/05 12:42:05;;;;;;;;;;;;;;;17.77;73.75;101419.91;1771516;80;20213;-60
2022/05/05 12:45:12;;;;;;;;;;;;;;;17.78;73.80;101414.72;1771246;81;20681;-62
2022/05/05 12:48:16;;;;;;;;;;;;;;;17.86;73.79;101417.37;1772030;80;20209;-61
2022/05/05 12:51:24;;;;;;;;;;;;;;;18.03;73.75;101417.10;1773651;80;20214;-57
2022/05/05 13:01:15;;;;;;;;;;;;;;;18.11;73.79;101420.57;1773741;81;20218;-61
2022/05/05 13:04:24;;;;;;;;;;;;;;;18.11;74.44;101418.35;1771025;81;20296;-60
2022/05/05 13:07:29;;;;;;;;;;;;;;;18.24;74.23;101425.37;1773262;81;20307;-62
2022/05/05 13:10:46;;;;;;;;;;;;;;;18.32;73.91;101414.14;1771875;81;20205;-63
2022/05/05 13:13:54;;;;;;;;;;;;;;;18.48;73.73;101427.22;1773798;81;20209;-60
2022/05/05 13:17:01;;;;;;;;;;;;;;;18.53;73.44;101419.16;1773605;81;20300;-60
2022/05/05 13:20:08;;;;;;;;;;;;;;;18.58;73.40;101426.86;1746399;79;20611;-62
2022/05/05 13:23:15;;;;;;;;;;;;;;;18.41;73.42;101417.98;1736162;82;20201;-63
2022/05/05 13:26:21;;;;;;;;;;;;;;;18.41;73.59;101422.14;1743290;82;20666;-55
2022/05/05 13:29:28;;;;;;;;;;;;;;;18.35;73.79;101417.89;1709223;84;20214;-62
2022/05/05 13:32:34;;;;;;;;;;;;;;;18.57;74.00;101445.41;1695679;84;20537;-60
2022/05/05 13:35:40;;;;;;;;;;;;;;;18.71;73.77;101433.91;1695409;85;20578;-64
2022/05/05 13:38:45;;;;;;;;;;;;;;;18.67;73.51;101432.58;1695159;85;20651;-60
2022/05/05 13:41:53;;;;;;;;;;;;;;;18.67;73.47;101433.97;1702549;84;20257;-62
2022/05/05 13:45:00;;;;;;;;;;;;;;;18.79;73.69;101433.19;1699544;83;20251;-60
2022/05/05 13:48:05;;;;;;;;;;;;;;;19.46;73.84;101443.59;1716558;83;20209;-62
2022/05/05 13:51:13;;;;;;;;;;;;;;;20.13;73.53;101442.52;1701331;84;20225;-63
2022/05/05 13:54:23;;;;;;;;;;;;;;;20.73;72.72;101434.50;1705414;82;20217;-59
2022/05/05 13:57:29;;;;;;;;;;;;;;;20.77;71.96;101442.75;1714449;81;20559;-59
2022/05/05 14:00:35;;;;;;;;;;;;;;;20.37;71.50;101435.50;1700316;83;20246;-58
2022/05/05 14:03:45;;;;;;;;;;;;;;;20.03;71.57;101430.08;1755910;80;20211;-58
2022/05/05 14:06:50;;;;;;;;;;;;;;;20.06;71.69;101434.68;1743278;82;20255;-58
2022/05/05 14:13:19;;;;;;;;;;;;;;;19.88;72.21;101440.54;1742090;82;20220;-58
2022/05/05 14:16:26;;;;;;;;;;;;;;;20.07;72.59;101436.94;1766432;81;20493;-59
2022/05/05 14:19:32;;;;;;;;;;;;;;;19.85;72.58;101433.46;1773103;80;20201;-60
2022/05/05 14:22:30;;;;;;;;;;;;;;;19.66;72.69;101447.33;1784420;80;20518;-59
2022/05/05 14:25:23;;;;;;;;;;;;;;;19.57;72.71;101439.70;1773280;80;20562;-59
2022/05/05 14:28:09;;;;;;;;;;;;;;;19.42;72.46;101448.73;1773275;80;20526;-60
2022/05/05 14:31:03;;;;;;;;;;;;;;;19.49;72.05;101443.21;1773906;80;20277;-59
2022/05/05 14:33:49;;;;;;;;;;;;;;;19.42;71.65;101443.70;1773899;80;20186;-58
2022/05/05 14:36:42;;;;;;;;;;;;;;;19.30;71.55;101450.37;1774788;80;20302;-59
2022/05/05 14:39:48;;;;;;;;;;;;;;;19.04;71.50;101447.45;1774097;81;20189;-60
2022/05/05 14:42:56;;;;;;;;;;;;;;;19.03;71.59;101447.97;1774414;80;20198;-61
2022/05/05 14:46:02;;;;;;;;;;;;;;;19.60;71.62;101443.45;1773627;80;20206;-60
2022/05/05 14:49:10;;;;;;;;;;;;;;;20.12;71.60;101442.17;1746895;80;20249;-60
2022/05/05 14:52:16;;;;;;;;;;;;;;;20.85;70.98;101438.88;1742087;82;20564;-60
2022/05/05 14:55:22;;;;;;;;;;;;;;;21.60;70.25;101444.10;1741047;82;20451;-60
2022/05/05 14:58:27;;;;;;;;;;;;;;;22.08;69.02;101441.70;1762454;80;20247;-60
2022/05/05 15:01:34;;;;;;;;;;;;;;;22.21;68.69;101443.02;1767483;81;20500;-62
2022/05/05 15:04:39;;;;;;;;;;;;;;;22.33;68.38;101448.16;1772507;80;20206;-59
2022/05/05 15:07:43;;;;;;;;;;;;;;;22.78;67.42;101440.50;1760372;80;20216;-59
2022/05/05 15:10:50;;;;;;;;;;;;;;;22.55;66.33;101445.89;1741167;82;20211;-61
2022/05/05 15:13:57;;;;;;;;;;;;;;;22.03;66.35;101446.57;1740983;82;20208;-63
2022/05/05 15:17:07;;;;;;;;;;;;;;;22.09;67.13;101448.98;1741652;82;20199;-59
2022/05/05 15:20:17;;;;;;;;;;;;;;;22.46;66.38;101451.39;1741955;82;20208;-60
2022/05/05 15:23:22;;;;;;;;;;;;;;;22.27;66.25;101446.29;1742544;82;20227;-60
2022/05/05 15:26:27;;;;;;;;;;;;;;;22.23;65.75;101447.27;1742296;82;20556;-58
2022/05/05 15:29:35;;;;;;;;;;;;;;;21.90;65.72;101452.23;1771743;81;20254;-60
2022/05/05 15:32:40;;;;;;;;;;;;;;;21.80;66.77;101456.03;1764724;81;20230;-60
2022/05/05 15:35:46;;;;;;;;;;;;;;;22.38;66.67;101448.88;1754468;81;20212;-59
2022/05/05 15:38:55;;;;;;;;;;;;;;;22.47;66.21;101447.53;1759307;80;20230;-61
2022/05/05 15:42:00;;;;;;;;;;;;;;;22.75;65.68;101459.11;1758411;81;20584;-61
2022/05/05 15:45:07;;;;;;;;;;;;;;;23.01;65.22;101459.70;1727666;82;20615;-60
2022/05/05 15:48:13;;;;;;;;;;;;;;;23.12;64.15;101456.70;1704788;83;20214;-61
2022/05/05 15:51:23;;;;;;;;;;;;;;;22.75;64.66;101453.53;1706134;83;20202;-60
2022/05/05 15:54:35;;;;;;;;;;;;;;;23.39;65.09;101468.75;1703612;84;20219;-60
2022/05/05 15:57:43;;;;;;;;;;;;;;;23.07;63.49;101469.11;1696277;81;20221;-62
2022/05/05 16:00:50;;;;;;;;;;;;;;;21.66;64.38;101482.80;1696301;84;20249;-59
2022/05/05 16:03:57;;;;;;;;;;;;;;;20.93;65.51;101477.06;1696667;84;20213;-59
2022/05/05 16:07:03;;;;;;;;;;;;;;;21.18;65.73;101483.72;1703012;83;20250;-62
2022/05/05 16:10:08;;;;;;;;;;;;;;;21.73;65.14;101477.50;1698917;83;20216;-62
2022/05/05 16:13:13;;;;;;;;;;;;;;;22.49;64.37;101483.89;1676473;85;20305;-61
2022/05/05 16:16:16;;;;;;;;;;;;;;;22.93;63.53;101488.49;1699100;84;20561;-61
2022/05/05 16:19:21;;;;;;;;;;;;;;;23.08;63.11;101487.03;1759584;81;20208;-60
2022/05/05 16:22:26;;;;;;;;;;;;;;;22.48;63.10;101486.38;1708104;83;20246;-60
2022/05/05 16:32:19;;;;;;;;;;;;;;;19.97;64.65;101492.08;1742143;82;20548;-60
2022/05/05 16:35:25;;;;;;;;;;;;;;;19.33;65.20;101505.50;1766545;80;20623;-60
2022/05/05 16:38:30;;;;;;;;;;;;;;;19.14;65.90;101504.30;1769934;80;20258;-61
2022/05/05 16:41:38;;;;;;;;;;;;;;;18.67;65.90;101513.89;1772336;80;20213;-60
2022/05/05 16:44:43;;;;;;;;;;;;;;;18.35;66.37;101505.23;1773338;81;20233;-60
2022/05/05 16:47:50;;;;;;;;;;;;;;;18.22;66.53;101518.44;1731879;82;20223;-59
2022/05/05 16:50:55;;;;;;;;;;;;;;;18.00;66.55;101522.25;1773685;80;20519;-59
2022/05/05 16:54:01;;;;;;;;;;;;;;;17.57;66.44;101527.37;1774186;81;20174;-60
2022/05/05 16:57:11;;;;;;;;;;;;;;;17.14;66.59;101522.71;1772771;80;20221;-60
2022/05/05 17:00:17;;;;;;;;;;;;;;;16.73;66.83;101533.33;1774418;80;20210;-61
2022/05/05 17:03:24;;;;;;;;;;;;;;;16.30;67.02;101543.19;1773746;80;20253;-60